Latest Coastal Weather Observations for Burnie Port

IDT60701

Issued at 2:02 pm EDT Tuesday 23 December 2014 (issued every 10 minutes, with the page automatically refreshed every 10 minutes)

About coastal observations | Map of coastal stations | Coastal observations for TAS | Marine services | Other Formats
Station Details ID: 091344 Name: BURNIE NTC AWS Lat: -41.05 Lon: 145.91 Height: 0.0 m
Data from the previous 72 hours. | See also: Recent months for locations in Tasmania
Date/Time
EDT
Temp

°C
Wind Pressure Rain
since 9am
mm
Weather Cloud Vis
km
Sea
Height
m
Swell
Dir
 
Speed
knots
Gust
knots
hPa Trend Height
m
Period
s
Dir
23/02:00pm 16.9 NW 8 9 1004.9 - - - - - - - - -
23/01:30pm 17.0 NNW 6 7 1004.8 - - - - - - - - -
23/01:00pm 17.2 N 4 5 1004.8 - - - - - - - - -
23/12:30pm 17.2 NNE 2 3 1005.0 - - - - - - - - -
23/12:00pm 17.2 SE 1 3 1005.2 - - - - - - - - -
23/11:30am 17.1 ESE 3 5 1005.5 - - - - - - - - -
23/11:00am 17.2 ESE 5 7 1005.7 - - - - - - - - -
23/10:30am 17.4 E 8 10 1005.9 - - - - - - - - -
23/10:00am 17.7 ESE 7 10 1005.9 - - - - - - - - -
23/09:30am 17.7 E 4 7 1006.3 - - - - - - - - -
23/09:00am 18.2 E 5 7 1006.1 - - - - - - - - -
23/08:30am 18.6 ESE 4 6 1006.1 - - - - - - - - -
23/08:00am 18.7 SE 5 8 1006.1 - - - - - - - - -
23/07:30am 19.0 SE 5 7 1006.2 - - - - - - - - -
23/07:00am 18.9 SE 5 7 1006.3 - - - - - - - - -
23/06:30am 19.2 SSE 3 6 1006.2 - - - - - - - - -
23/06:00am 18.6 S 5 9 1006.0 - - - - - - - - -
23/05:30am 18.2 S 8 9 1005.8 - - - - - - - - -
23/05:00am 18.2 S 8 11 1005.5 - - - - - - - - -
23/04:30am 18.4 S 8 10 1005.6 - - - - - - - - -
23/04:00am 17.4 SSE 4 6 1006.2 - - - - - - - - -
23/03:30am 17.5 S 6 7 1006.1 - - - - - - - - -
23/03:00am 17.4 SSW 4 6 1006.7 - - - - - - - - -
23/02:30am 17.6 NE 3 4 1007.5 - - - - - - - - -
23/02:00am 17.4 ENE 4 6 1007.8 - - - - - - - - -
23/01:30am 17.4 W 2 2 1008.2 - - - - - - - - -
23/01:00am 17.3 NNW 7 11 1009.2 - - - - - - - - -
23/12:30am 19.0 SE 4 6 1008.8 - - - - - - - - -
23/12:00am 18.5 S 8 9 1009.2 - - - - - - - - -
 
Date/Time
EDT
Temp

°C
Wind Pressure Rain
since 9am
mm
Weather Cloud Vis
km
Sea
Height
m
Swell
Dir
 
Speed
knots
Gust
knots
hPa Trend Height
m
Period
s
Dir
22/11:30pm 18.3 SSE 6 8 1009.6 - - - - - - - - -
22/11:00pm 18.5 SE 7 8 1009.9 - - - - - - - - -
22/10:30pm 18.6 ESE 10 13 1010.4 - - - - - - - - -
22/10:00pm 19.2 SE 13 20 1010.6 - - - - - - - - -
22/09:30pm 18.6 SSE 14 17 1010.9 - - - - - - - - -
22/09:00pm 18.2 SE 8 10 1011.5 - - - - - - - - -
22/08:30pm 18.5 SSE 8 11 1011.6 - - - - - - - - -
22/08:00pm 18.6 SE 7 11 1011.2 - - - - - - - - -
22/07:30pm 18.5 SE 7 11 1010.7 - - - - - - - - -
22/07:00pm 18.1 ESE 11 14 1010.4 - - - - - - - - -
22/06:30pm 17.9 SE 9 12 1010.4 - - - - - - - - -
22/06:00pm 17.3 ESE 15 18 1009.9 - - - - - - - - -
22/05:30pm 17.1 ESE 13 15 1010.2 - - - - - - - - -
22/05:00pm 17.0 SE 12 16 1010.5 - - - - - - - - -
22/04:30pm 16.8 ESE 9 10 1011.9 - - - - - - - - -
22/04:00pm 16.9 E 7 10 1012.6 - - - - - - - - -
22/03:30pm 16.8 ESE 9 10 1012.5 - - - - - - - - -
22/03:00pm 17.0 E 9 11 1013.3 - - - - - - - - -
22/02:30pm 17.2 E 8 10 1013.8 - - - - - - - - -
22/02:00pm 16.6 SSE 5 6 1014.6 - - - - - - - - -
22/01:30pm 16.8 SSE 2 2 1015.5 - - - - - - - - -
22/01:00pm 16.6 E 2 3 1015.7 - - - - - - - - -
22/12:30pm 16.5 E 2 3 1015.6 - - - - - - - - -
22/12:00pm 16.5 E 3 5 1015.7 - - - - - - - - -
22/11:30am 16.5 E 4 5 1015.6 - - - - - - - - -
22/11:00am 16.4 ESE 3 4 1015.8 - - - - - - - - -
22/10:30am 15.9 E 6 8 1015.4 - - - - - - - - -
22/10:00am 15.7 ESE 8 10 1015.6 - - - - - - - - -
22/09:30am 15.6 SE 12 15 1015.2 - - - - - - - - -
22/09:00am 15.7 ESE 13 16 1015.1 - - - - - - - - -
22/08:30am 15.8 SE 10 13 1014.7 - - - - - - - - -
22/08:00am 15.1 SSE 8 10 1014.7 - - - - - - - - -
22/07:30am 14.0 S 7 9 1014.5 - - - - - - - - -
22/07:00am 13.5 SSW 5 6 1014.5 - - - - - - - - -
22/06:30am 12.3 S 3 4 1014.1 - - - - - - - - -
22/06:00am 12.1 S 4 6 1013.8 - - - - - - - - -
22/05:30am 12.4 S 4 5 1013.6 - - - - - - - - -
22/05:00am 12.4 S 6 8 1013.5 - - - - - - - - -
22/04:30am 12.6 SSW 4 7 1013.4 - - - - - - - - -
22/04:00am 12.7 SSW 6 7 1013.2 - - - - - - - - -
22/03:30am 13.1 SSW 6 7 1013.1 - - - - - - - - -
22/03:00am 13.5 SSW 6 7 1013.2 - - - - - - - - -
22/02:30am 13.6 SSW 4 6 1013.5 - - - - - - - - -
22/02:00am 13.8 SSW 8 10 1013.4 - - - - - - - - -
22/01:30am 14.1 SSW 4 6 1013.5 - - - - - - - - -
22/01:00am 14.5 SSW 3 4 1013.7 - - - - - - - - -
22/12:30am 15.0 SSW 4 5 1013.6 - - - - - - - - -
22/12:00am 15.4 WSW 1 3 1013.6 - - - - - - - - -
 
Date/Time
EDT
Temp

°C
Wind Pressure Rain
since 9am
mm
Weather Cloud Vis
km
Sea
Height
m
Swell
Dir
 
Speed
knots
Gust
knots
hPa Trend Height
m
Period
s
Dir
21/11:30pm 15.7 W 5 8 1013.5 - - - - - - - - -
21/11:00pm 16.4 SW 4 6 1013.6 - - - - - - - - -
21/10:30pm 16.9 SSW 7 11 1013.6 - - - - - - - - -
21/10:00pm 17.6 WSW 7 12 1013.3 - - - - - - - - -
21/09:30pm 18.4 WSW 6 9 1012.7 - - - - - - - - -
21/09:00pm 18.5 WNW 5 8 1012.6 - - - - - - - - -
21/08:30pm 17.5 WNW 7 12 1012.3 - - - - - - - - -
21/08:00pm 16.9 NW 14 16 1011.8 - - - - - - - - -
21/07:30pm 16.5 NW 15 19 1011.8 - - - - - - - - -
21/07:00pm 16.3 NW 15 18 1012.1 - - - - - - - - -
21/06:30pm 16.3 NW 16 20 1012.1 - - - - - - - - -
21/06:00pm 16.1 NW 16 20 1012.2 - - - - - - - - -
21/05:30pm 16.1 NNW 15 18 1012.4 - - - - - - - - -
21/05:00pm 16.1 NNW 16 19 1012.8 - - - - - - - - -
21/04:30pm 15.9 NW 16 19 1013.0 - - - - - - - - -
21/04:00pm 15.9 NNW 14 17 1013.1 - - - - - - - - -
21/03:30pm 15.9 NNW 15 19 1013.2 - - - - - - - - -
21/03:00pm 15.9 NNW 15 18 1013.3 - - - - - - - - -
21/02:30pm 15.9 NNW 13 17 1013.5 - - - - - - - - -
21/02:00pm 15.9 NNW 13 16 1013.7 - - - - - - - - -
21/01:30pm 15.8 NNW 16 18 1013.9 - - - - - - - - -
21/01:00pm 15.8 NW 16 19 1014.7 - - - - - - - - -
21/12:30pm 15.4 NW 15 17 1015.0 - - - - - - - - -
21/12:00pm 15.6 NW 13 15 1015.0 - - - - - - - - -
21/11:30am 15.2 NNW 8 10 1014.8 - - - - - - - - -
21/11:00am 15.1 NNW 4 5 1014.7 - - - - - - - - -
21/10:30am 14.9 NNW 5 6 1014.9 - - - - - - - - -
21/10:00am 15.3 NE 5 7 1014.8 - - - - - - - - -
21/09:30am 15.2 NE 5 7 1015.0 - - - - - - - - -
21/09:00am 15.4 NE 3 5 1014.9 - - - - - - - - -
21/08:30am 14.8 NNE 3 4 1014.6 - - - - - - - - -
21/08:00am 15.3 CALM 0 1 1014.5 - - - - - - - - -
21/07:30am 14.5 SSE 1 3 1014.3 - - - - - - - - -
21/07:00am 14.0 S 1 3 1014.2 - - - - - - - - -
21/06:30am 13.3 SSE 2 4 1014.1 - - - - - - - - -
21/06:00am 12.9 SSW 6 7 1014.6 - - - - - - - - -
21/05:30am 12.6 SSW 3 4 1014.6 - - - - - - - - -
21/05:00am 12.4 SSW 4 6 1014.3 - - - - - - - - -
21/04:30am 12.4 S 5 6 1013.8 - - - - - - - - -
21/04:00am 12.3 S 4 5 1013.6 - - - - - - - - -
21/03:30am 12.2 SSW 3 5 1013.7 - - - - - - - - -
21/03:00am 12.3 SSW 4 5 1013.9 - - - - - - - - -
21/02:30am 12.4 SSW 5 7 1013.9 - - - - - - - - -
21/02:00am 12.7 SSW 5 7 1014.0 - - - - - - - - -
21/01:30am 13.1 NW 2 6 1014.2 - - - - - - - - -

Other Formats:

Comma delimited format used in spreadsheet applications
http://www.bom.gov.au/fwo/IDT60701/IDT60701.95963.axf

JavaScript Object Notation format (JSON) in row-major order
http://www.bom.gov.au/fwo/IDT60701/IDT60701.95963.json